Time;durP1;ratioP1;P1;durP2;ratioP2;P2;SDS_P1;SDS_P2;PMS_P1;PMS_P2;Temp;Humidity;BMP_temperature;BMP_pressure;BME280_temperature;BME280_humidity;BME280_pressure;Samples;Min_cycle;Max_cycle;Signal;HPM_P1;HPM_P2
2024/02/16 00:00:44;;;;;;;16.93;15.17;;;11.00;95.80;;;;;;5035984;28;20180;-86
2024/02/16 00:03:09;;;;;;;17.03;15.60;;;11.00;95.80;;;;;;5035955;28;20192;-86
2024/02/16 00:05:36;;;;;;;17.83;15.97;;;10.80;95.80;;;;;;5035990;28;20710;-86
2024/02/16 00:08:03;;;;;;;15.73;14.37;;;11.00;95.80;;;;;;5035926;28;20276;-86
2024/02/16 00:10:28;;;;;;;17.27;15.53;;;11.00;95.80;;;;;;5017706;28;20179;-86
2024/02/16 00:12:54;;;;;;;16.67;15.03;;;10.90;95.70;;;;;;5017948;28;20181;-86
2024/02/16 00:15:19;;;;;;;17.57;15.97;;;10.80;95.70;;;;;;5017946;28;20180;-86
2024/02/16 00:17:45;;;;;;;17.23;15.70;;;10.80;95.70;;;;;;5018435;28;20684;-86
2024/02/16 00:20:14;;;;;;;17.23;15.63;;;10.80;95.70;;;;;;5035791;28;20199;-86
2024/02/16 00:22:40;;;;;;;17.00;15.43;;;10.90;95.70;;;;;;5035484;28;20185;-86
2024/02/16 00:25:06;;;;;;;16.47;15.10;;;10.80;95.60;;;;;;5017196;28;20291;-86
2024/02/16 00:27:31;;;;;;;17.60;16.00;;;10.80;95.50;;;;;;5035348;28;20219;-86
2024/02/16 00:29:57;;;;;;;19.27;15.43;;;10.70;95.50;;;;;;5017678;28;20169;-86
2024/02/16 00:32:24;;;;;;;16.57;15.03;;;10.70;95.60;;;;;;5017655;28;20243;-87
2024/02/16 00:34:53;;;;;;;16.47;15.07;;;10.70;95.60;;;;;;5035306;28;20176;-86
2024/02/16 00:37:19;;;;;;;16.93;15.10;;;10.60;95.60;;;;;;5017279;28;20226;-86
2024/02/16 00:39:44;;;;;;;16.77;14.93;;;10.70;95.60;;;;;;5035241;28;20235;-86
2024/02/16 00:42:10;;;;;;;15.70;14.30;;;10.70;95.60;;;;;;5034931;28;20255;-86
2024/02/16 00:44:36;;;;;;;16.87;15.27;;;10.60;95.60;;;;;;5034816;28;20220;-86
2024/02/16 00:47:02;;;;;;;15.97;14.40;;;10.60;95.60;;;;;;5017243;28;20173;-86
2024/02/16 00:49:28;;;;;;;16.47;15.13;;;10.60;95.60;;;;;;5035094;28;20196;-86
2024/02/16 00:51:53;;;;;;;16.47;14.73;;;10.50;95.60;;;;;;5034856;28;20196;-86
2024/02/16 00:54:20;;;;;;;16.27;14.60;;;10.50;95.60;;;;;;5034744;28;20267;-86
2024/02/16 00:56:45;;;;;;;19.07;15.00;;;10.60;95.70;;;;;;5034921;28;20168;-86
2024/02/16 00:59:11;;;;;;;17.00;15.60;;;10.70;95.70;;;;;;5034684;28;20258;-86
2024/02/16 01:01:36;;;;;;;16.00;14.40;;;10.60;95.60;;;;;;5035144;28;20641;-86
2024/02/16 01:04:02;;;;;;;15.83;14.60;;;10.60;95.50;;;;;;5034394;28;20196;-86
2024/02/16 01:06:28;;;;;;;16.40;15.10;;;10.60;95.50;;;;;;5016994;28;20204;-86
2024/02/16 01:08:54;;;;;;;17.03;15.63;;;10.50;95.40;;;;;;5017021;28;20575;-86
2024/02/16 01:11:19;;;;;;;17.30;15.53;;;10.50;95.40;;;;;;5034715;28;20213;-86
2024/02/16 01:13:46;;;;;;;17.53;15.93;;;10.50;95.40;;;;;;5017025;28;20211;-87
2024/02/16 01:16:11;;;;;;;16.30;14.77;;;10.40;95.40;;;;;;5016970;28;20212;-87
2024/02/16 01:18:37;;;;;;;16.70;14.97;;;10.40;95.40;;;;;;5034419;28;20220;-86
2024/02/16 01:21:03;;;;;;;16.20;14.80;;;10.40;95.40;;;;;;5019725;28;20187;-86
2024/02/16 01:23:29;;;;;;;16.83;15.23;;;10.40;95.40;;;;;;5038585;28;20180;-86
2024/02/16 01:25:55;;;;;;;15.47;14.07;;;10.40;95.50;;;;;;5038551;28;20200;-86
2024/02/16 01:28:21;;;;;;;16.37;14.77;;;10.50;95.50;;;;;;5038876;28;20219;-86
2024/02/16 01:30:47;;;;;;;16.20;14.70;;;10.40;95.40;;;;;;5038972;28;20196;-87
2024/02/16 01:33:12;;;;;;;15.27;14.07;;;10.50;95.40;;;;;;5020447;28;20644;-86
2024/02/16 01:35:39;;;;;;;21.30;14.57;;;10.50;95.40;;;;;;5037909;28;20184;-86
2024/02/16 01:38:05;;;;;;;16.00;14.17;;;10.40;95.30;;;;;;5020391;28;20200;-86
2024/02/16 01:40:31;;;;;;;16.43;14.87;;;10.30;95.20;;;;;;5020041;28;20652;-86
2024/02/16 01:42:57;;;;;;;15.27;13.97;;;10.50;95.30;;;;;;5038155;28;20250;-87
2024/02/16 01:45:22;;;;;;;16.30;14.67;;;10.40;95.20;;;;;;5020234;28;20192;-86
2024/02/16 01:47:50;;;;;;;16.90;15.13;;;10.40;95.10;;;;;;5020233;28;20227;-86
2024/02/16 01:50:17;;;;;;;16.00;14.50;;;10.30;95.20;;;;;;5037911;28;20198;-87
2024/02/16 01:52:48;;;;;;;15.83;14.47;;;10.40;95.10;;;;;;5038146;28;20247;-86
2024/02/16 01:55:15;;;;;;;15.27;14.17;;;10.40;95.10;;;;;;5019970;28;20169;-86
2024/02/16 01:57:44;;;;;;;16.23;14.70;;;10.50;95.20;;;;;;5037697;28;20698;-86
2024/02/16 02:00:10;;;;;;;16.50;14.83;;;10.40;95.00;;;;;;5020213;28;20181;-87
2024/02/16 02:02:36;;;;;;;16.13;14.83;;;10.30;95.00;;;;;;5038164;28;20180;-86
2024/02/16 02:05:02;;;;;;;30.07;28.03;;;10.30;95.00;;;;;;5020810;28;20729;-86
2024/02/16 02:07:27;;;;;;;30.03;27.83;;;10.30;95.00;;;;;;5020150;28;20228;-87
2024/02/16 02:09:53;;;;;;;30.10;28.10;;;10.30;95.00;;;;;;5020113;28;20207;-87
2024/02/16 02:12:19;;;;;;;31.30;28.87;;;10.30;95.00;;;;;;5037553;28;20227;-86
2024/02/16 02:14:46;;;;;;;31.07;28.70;;;10.30;95.00;;;;;;5037639;28;20172;-86
2024/02/16 02:17:12;;;;;;;28.37;26.30;;;10.20;95.00;;;;;;5019047;28;20208;-86
2024/02/16 02:19:37;;;;;;;27.80;25.40;;;10.20;95.10;;;;;;5036803;28;20176;-86
2024/02/16 02:22:03;;;;;;;27.40;25.17;;;10.20;95.10;;;;;;5037513;28;20233;-86
2024/02/16 02:24:28;;;;;;;25.87;23.87;;;10.20;95.10;;;;;;5018854;28;20290;-87
2024/02/16 02:26:54;;;;;;;25.43;23.43;;;10.20;95.10;;;;;;5037117;28;20181;-86
2024/02/16 02:29:20;;;;;;;26.13;24.40;;;10.10;95.10;;;;;;5037547;28;20188;-86
2024/02/16 02:31:45;;;;;;;24.83;22.83;;;10.10;95.10;;;;;;5019754;28;20201;-86
2024/02/16 02:34:11;;;;;;;24.47;22.63;;;10.10;95.20;;;;;;5037098;28;20169;-86
2024/02/16 02:36:37;;;;;;;25.13;23.23;;;10.10;95.20;;;;;;5036536;28;20558;-86
2024/02/16 02:39:02;;;;;;;13.63;11.97;;;10.20;95.20;;;;;;5036856;28;20622;-86
2024/02/16 02:41:28;;;;;;;12.50;11.17;;;10.20;95.30;;;;;;5036391;28;20168;-86
2024/02/16 02:43:54;;;;;;;12.17;11.27;;;10.20;95.30;;;;;;5019247;28;20569;-87
2024/02/16 02:46:19;;;;;;;12.10;10.90;;;10.20;95.30;;;;;;5018959;28;20209;-86
2024/02/16 02:48:46;;;;;;;13.83;11.30;;;10.20;95.30;;;;;;5040580;28;20185;-86
2024/02/16 02:51:12;;;;;;;11.63;10.57;;;10.20;95.30;;;;;;5040981;28;20168;-86
2024/02/16 02:53:37;;;;;;;13.33;10.40;;;10.20;95.30;;;;;;5024196;28;20179;-86
2024/02/16 02:56:04;;;;;;;11.13;10.10;;;10.20;95.30;;;;;;5041262;28;20226;-86
2024/02/16 02:58:29;;;;;;;11.20;10.20;;;10.20;95.30;;;;;;5023407;28;20576;-86
2024/02/16 03:00:55;;;;;;;13.40;10.73;;;10.20;95.30;;;;;;5041172;28;20177;-86
2024/02/16 03:03:21;;;;;;;14.07;11.40;;;10.20;95.30;;;;;;5041249;28;20252;-86
2024/02/16 03:05:47;;;;;;;13.97;11.20;;;10.20;95.40;;;;;;5023442;28;20204;-86
2024/02/16 03:08:12;;;;;;;11.60;10.53;;;10.10;95.30;;;;;;5022799;28;20295;-86
2024/02/16 03:10:39;;;;;;;11.87;10.67;;;10.10;95.30;;;;;;5023325;28;20184;-86
2024/02/16 03:13:06;;;;;;;12.77;11.30;;;10.10;95.30;;;;;;5041240;28;20180;-86
2024/02/16 03:15:33;;;;;;;12.63;10.97;;;10.10;95.30;;;;;;5022937;28;20180;-86
2024/02/16 03:17:58;;;;;;;12.40;11.23;;;10.20;95.30;;;;;;5022513;28;20654;-86
2024/02/16 03:20:24;;;;;;;13.23;11.83;;;10.20;95.30;;;;;;5022461;28;20215;-86
2024/02/16 03:22:50;;;;;;;12.67;11.40;;;10.20;95.30;;;;;;5039639;28;20181;-87
2024/02/16 03:25:15;;;;;;;13.30;11.73;;;10.20;95.30;;;;;;5039775;28;20430;-86
2024/02/16 03:27:41;;;;;;;12.13;10.80;;;10.20;95.40;;;;;;5039886;28;20570;-86
2024/02/16 03:30:08;;;;;;;13.73;11.47;;;10.20;95.30;;;;;;5039295;28;20256;-86
2024/02/16 03:32:33;;;;;;;11.80;10.50;;;10.20;95.20;;;;;;5022307;28;20246;-86
2024/02/16 03:34:59;;;;;;;12.57;11.27;;;10.20;95.20;;;;;;5021615;28;20648;-86
2024/02/16 03:37:25;;;;;;;11.73;10.50;;;10.30;95.10;;;;;;5021139;28;20550;-86
2024/02/16 03:39:51;;;;;;;11.50;10.40;;;10.30;95.00;;;;;;5038750;28;20177;-86
2024/02/16 03:42:20;;;;;;;10.60;9.70;;;10.30;94.90;;;;;;5038994;28;20185;-86
2024/02/16 03:44:46;;;;;;;10.80;9.87;;;10.30;94.80;;;;;;5040696;28;20211;-86
2024/02/16 03:47:11;;;;;;;16.40;10.40;;;10.30;94.70;;;;;;5039966;28;20173;-85
2024/02/16 03:49:38;;;;;;;11.33;10.20;;;10.30;94.70;;;;;;5039143;28;20177;-87
2024/02/16 03:52:04;;;;;;;11.70;10.50;;;10.30;94.60;;;;;;5040028;28;20176;-86
2024/02/16 03:54:30;;;;;;;12.67;10.47;;;10.30;94.60;;;;;;5039285;28;20191;-86
2024/02/16 03:56:56;;;;;;;14.10;10.50;;;10.30;94.70;;;;;;5022346;28;20570;-86
2024/02/16 03:59:23;;;;;;;12.53;11.10;;;10.20;94.50;;;;;;5038664;28;20200;-86
2024/02/16 04:01:49;;;;;;;11.33;10.23;;;10.20;94.50;;;;;;5039912;28;20234;-86
2024/02/16 04:04:15;;;;;;;10.60;9.70;;;10.30;94.60;;;;;;5039942;28;20271;-85
2024/02/16 04:06:40;;;;;;;11.13;9.97;;;10.20;94.60;;;;;;5039498;28;20180;-86
2024/02/16 04:09:06;;;;;;;11.17;10.17;;;10.30;94.60;;;;;;5021289;28;20747;-86
2024/02/16 04:11:32;;;;;;;12.00;10.77;;;10.20;94.60;;;;;;5039205;28;20188;-86
2024/02/16 04:13:58;;;;;;;11.33;10.33;;;10.20;94.60;;;;;;5036779;28;20208;-89
2024/02/16 04:16:24;;;;;;;10.67;9.77;;;10.20;94.50;;;;;;5019158;28;20232;-87
2024/02/16 04:18:51;;;;;;;14.50;11.33;;;10.20;94.50;;;;;;5038303;28;20239;-86
2024/02/16 04:21:16;;;;;;;11.37;10.23;;;10.20;94.50;;;;;;5020754;28;20185;-86
2024/02/16 04:23:42;;;;;;;11.57;10.47;;;10.20;94.40;;;;;;5037900;28;20223;-86
2024/02/16 04:26:08;;;;;;;13.50;11.50;;;10.20;94.40;;;;;;5020237;28;20255;-86
2024/02/16 04:28:34;;;;;;;12.50;10.50;;;10.30;94.40;;;;;;5038302;28;20189;-87
2024/02/16 04:31:00;;;;;;;11.83;10.73;;;10.20;94.30;;;;;;5020886;28;20173;-86
2024/02/16 04:33:25;;;;;;;11.90;10.90;;;10.30;94.30;;;;;;5020856;28;20180;-86
2024/02/16 04:35:51;;;;;;;10.60;9.80;;;10.20;94.30;;;;;;5020567;28;20181;-86
2024/02/16 04:38:18;;;;;;;12.17;10.70;;;10.20;94.20;;;;;;5020725;28;20209;-86
2024/02/16 04:40:43;;;;;;;12.23;11.03;;;10.20;94.20;;;;;;5038194;28;20188;-86
2024/02/16 04:43:09;;;;;;;13.10;10.97;;;10.20;94.20;;;;;;5020736;28;20180;-86
2024/02/16 04:45:35;;;;;;;12.10;11.00;;;10.20;94.20;;;;;;5039395;28;20200;-86
2024/02/16 04:48:05;;;;;;;14.20;11.10;;;10.10;94.30;;;;;;5038853;28;20193;-87
2024/02/16 04:50:32;;;;;;;11.60;10.67;;;10.20;94.20;;;;;;5038684;28;20203;-86
2024/02/16 04:52:58;;;;;;;13.43;11.00;;;10.20;94.20;;;;;;5038284;28;20173;-86
2024/02/16 04:55:23;;;;;;;12.93;11.43;;;10.10;94.20;;;;;;5020151;28;20176;-86
2024/02/16 04:57:49;;;;;;;12.00;11.07;;;10.10;94.20;;;;;;5020192;28;20636;-86
2024/02/16 05:00:15;;;;;;;12.73;11.50;;;10.10;94.10;;;;;;5020295;28;20204;-86
2024/02/16 05:02:40;;;;;;;12.43;11.30;;;10.00;94.20;;;;;;5037912;28;20204;-86
2024/02/16 05:05:06;;;;;;;12.43;11.33;;;10.00;94.20;;;;;;5020358;28;20219;-86
2024/02/16 05:07:32;;;;;;;12.40;11.23;;;10.00;94.20;;;;;;5037850;28;20199;-86
2024/02/16 05:09:58;;;;;;;15.53;11.83;;;9.90;94.30;;;;;;5037120;28;20169;-86
2024/02/16 05:12:24;;;;;;;13.10;11.97;;;9.90;94.30;;;;;;5036878;28;20165;-86
2024/02/16 05:14:50;;;;;;;20.57;19.13;;;10.00;94.30;;;;;;5037440;28;20184;-86
2024/02/16 05:17:16;;;;;;;21.20;19.60;;;10.00;94.30;;;;;;5020166;28;20208;-86
2024/02/16 05:19:41;;;;;;;21.67;20.00;;;10.00;94.30;;;;;;5037971;28;20173;-86
2024/02/16 05:22:07;;;;;;;20.07;18.67;;;10.00;94.30;;;;;;5037723;28;20185;-86
2024/02/16 05:24:33;;;;;;;20.93;19.33;;;10.00;94.30;;;;;;5019645;28;20662;-86
2024/02/16 05:26:59;;;;;;;19.90;18.30;;;10.00;94.30;;;;;;5019056;28;20226;-86
2024/02/16 05:29:26;;;;;;;19.40;18.00;;;10.00;94.20;;;;;;5019136;28;20188;-86
2024/02/16 05:31:52;;;;;;;19.03;17.57;;;10.00;94.20;;;;;;5037344;28;20172;-86
2024/02/16 05:34:18;;;;;;;20.33;18.87;;;10.00;94.10;;;;;;5019456;28;20212;-86
2024/02/16 05:36:44;;;;;;;21.20;19.70;;;10.10;94.00;;;;;;5036465;28;20205;-86
2024/02/16 05:39:20;;;;;;;21.30;19.80;;;10.00;94.00;;;;;;5036948;28;20185;-87
2024/02/16 05:41:46;;;;;;;22.30;20.50;;;10.00;93.90;;;;;;5019109;28;20171;-86
2024/02/16 05:44:12;;;;;;;23.77;21.90;;;10.00;93.90;;;;;;5019033;28;20653;-86
2024/02/16 05:46:38;;;;;;;21.57;19.83;;;10.00;93.90;;;;;;5018959;28;20273;-86
2024/02/16 05:49:04;;;;;;;13.83;12.63;;;9.90;93.90;;;;;;5037408;28;20200;-86
2024/02/16 05:51:37;;;;;;;13.70;12.67;;;9.80;93.80;;;;;;5036279;28;20602;-86
2024/02/16 05:54:03;;;;;;;13.97;12.67;;;9.80;93.80;;;;;;5036738;28;20161;-86
2024/02/16 05:56:29;;;;;;;14.40;13.07;;;9.80;93.90;;;;;;5019016;28;20180;-86
2024/02/16 05:58:54;;;;;;;14.90;13.50;;;9.70;94.00;;;;;;5036977;28;20707;-86
2024/02/16 06:01:20;;;;;;;14.27;13.00;;;9.70;94.00;;;;;;5037419;28;20189;-86
2024/02/16 06:03:45;;;;;;;14.87;13.40;;;9.70;94.00;;;;;;5019351;28;20200;-86
2024/02/16 06:06:11;;;;;;;14.50;13.07;;;9.70;94.10;;;;;;5037282;28;20212;-86
2024/02/16 06:08:36;;;;;;;15.33;13.80;;;9.70;94.10;;;;;;5036970;28;20254;-86
2024/02/16 06:11:02;;;;;;;14.57;13.23;;;9.60;94.10;;;;;;5037195;28;20172;-86
2024/02/16 06:13:29;;;;;;;14.90;13.63;;;9.60;94.10;;;;;;5036834;28;20169;-86
2024/02/16 06:15:55;;;;;;;13.17;12.10;;;9.60;94.20;;;;;;5036847;28;20282;-86
2024/02/16 06:18:20;;;;;;;14.33;13.30;;;9.60;94.10;;;;;;5034763;28;20219;-86
2024/02/16 06:20:46;;;;;;;15.43;13.93;;;9.60;94.10;;;;;;5017155;28;20422;-86
2024/02/16 06:23:12;;;;;;;15.20;13.63;;;9.60;94.20;;;;;;5037615;28;20183;-86
2024/02/16 06:25:37;;;;;;;15.30;13.90;;;9.50;94.10;;;;;;5038679;28;20200;-86
2024/02/16 06:28:04;;;;;;;14.13;13.13;;;9.60;94.10;;;;;;5038214;28;20707;-87
2024/02/16 06:30:30;;;;;;;16.33;14.67;;;9.50;94.10;;;;;;5038465;28;20176;-86
2024/02/16 06:32:55;;;;;;;14.33;13.00;;;9.50;94.10;;;;;;5038855;28;20169;-86
2024/02/16 06:35:21;;;;;;;14.13;12.93;;;9.50;94.10;;;;;;5038845;28;20176;-86
2024/02/16 06:37:46;;;;;;;15.00;13.57;;;9.50;94.10;;;;;;5039578;28;20200;-86
2024/02/16 06:40:12;;;;;;;13.97;12.63;;;9.50;94.20;;;;;;5020627;28;20189;-86
2024/02/16 06:42:38;;;;;;;16.70;13.33;;;9.50;94.10;;;;;;5020691;28;20177;-86
2024/02/16 06:45:05;;;;;;;13.43;12.30;;;9.50;94.10;;;;;;5020573;28;20212;-86
2024/02/16 06:47:31;;;;;;;13.20;12.10;;;9.50;94.10;;;;;;5020170;28;20203;-89
2024/02/16 06:49:56;;;;;;;13.53;12.30;;;9.50;94.10;;;;;;5019585;28;20184;-87
2024/02/16 06:52:22;;;;;;;13.47;12.17;;;9.50;94.10;;;;;;5019835;28;20556;-88
2024/02/16 06:54:49;;;;;;;14.30;12.83;;;9.50;94.10;;;;;;5045285;28;20298;-89
2024/02/16 06:57:15;;;;;;;13.60;12.57;;;9.50;94.10;;;;;;5022244;28;20181;-87
2024/02/16 06:59:41;;;;;;;14.30;13.20;;;9.50;94.10;;;;;;5024178;28;20188;-87
2024/02/16 07:02:07;;;;;;;14.73;13.20;;;9.50;94.00;;;;;;5037702;28;20180;-91
2024/02/16 07:04:33;;;;;;;14.93;13.43;;;9.50;94.00;;;;;;5037332;28;20200;-86
2024/02/16 07:06:58;;;;;;;13.90;12.83;;;9.50;94.00;;;;;;5019805;28;20200;-85
2024/02/16 07:09:23;;;;;;;14.17;12.97;;;9.60;93.90;;;;;;5019590;28;20254;-87
2024/02/16 07:11:50;;;;;;;14.50;13.03;;;9.60;93.90;;;;;;5037502;28;20165;-86
2024/02/16 07:14:16;;;;;;;15.60;14.13;;;9.60;93.90;;;;;;5037333;28;20165;-86
2024/02/16 07:16:41;;;;;;;16.47;14.53;;;9.60;93.80;;;;;;5037060;28;20169;-86
2024/02/16 07:19:07;;;;;;;14.87;13.67;;;9.60;93.90;;;;;;5019168;28;20196;-86
2024/02/16 07:21:32;;;;;;;17.20;13.53;;;9.60;93.80;;;;;;5037134;28;20260;-86
2024/02/16 07:23:58;;;;;;;14.67;13.20;;;9.60;93.80;;;;;;5037658;28;20184;-85
2024/02/16 07:26:24;;;;;;;15.30;14.00;;;9.60;93.80;;;;;;5036879;28;20200;-86
2024/02/16 07:28:50;;;;;;;14.90;13.50;;;9.60;93.80;;;;;;5018816;28;20192;-86
2024/02/16 07:31:16;;;;;;;15.43;13.93;;;9.60;93.80;;;;;;5018729;28;20673;-88
2024/02/16 07:33:42;;;;;;;14.67;13.67;;;9.70;93.80;;;;;;5018592;28;20223;-86
2024/02/16 07:36:08;;;;;;;14.70;13.37;;;9.70;93.80;;;;;;5036794;28;20181;-86
2024/02/16 07:38:33;;;;;;;14.90;13.70;;;9.80;93.70;;;;;;5037118;28;20200;-89
2024/02/16 07:40:59;;;;;;;13.90;12.80;;;9.80;93.60;;;;;;5019785;28;20205;-88
2024/02/16 07:43:26;;;;;;;13.73;12.43;;;9.80;93.50;;;;;;5020691;28;20422;-86
2024/02/16 07:45:54;;;;;;;14.33;13.23;;;9.80;93.50;;;;;;5037341;28;20287;-89
2024/02/16 07:48:21;;;;;;;14.10;13.10;;;9.90;93.40;;;;;;5018384;28;20224;-89
2024/02/16 07:50:47;;;;;;;13.83;12.63;;;9.90;93.40;;;;;;5018290;28;20203;-89
2024/02/16 07:53:13;;;;;;;14.83;13.50;;;9.90;93.30;;;;;;5036072;28;20165;-89
2024/02/16 07:55:38;;;;;;;15.07;13.80;;;10.00;93.20;;;;;;5035978;28;20179;-89
2024/02/16 07:58:04;;;;;;;14.83;13.67;;;10.00;93.20;;;;;;5035996;28;20197;-89
2024/02/16 08:00:29;;;;;;;14.37;13.23;;;10.10;93.10;;;;;;5018640;28;20670;-89
2024/02/16 08:02:55;;;;;;;15.33;13.90;;;10.10;93.00;;;;;;5035468;28;20547;-88
2024/02/16 08:05:22;;;;;;;14.73;13.30;;;10.10;93.00;;;;;;5018224;28;20188;-89
2024/02/16 08:07:48;;;;;;;16.70;13.83;;;10.20;92.90;;;;;;5035530;28;20192;-89
2024/02/16 08:10:13;;;;;;;14.97;14.00;;;10.20;92.80;;;;;;5035764;28;20164;-89
2024/02/16 08:12:40;;;;;;;14.90;13.67;;;10.20;92.70;;;;;;5017933;28;20263;-89
2024/02/16 08:15:07;;;;;;;15.10;13.97;;;10.20;92.70;;;;;;5017887;28;20180;-89
2024/02/16 08:17:36;;;;;;;15.07;14.07;;;10.30;92.70;;;;;;5035954;28;20192;-89
2024/02/16 08:20:02;;;;;;;15.90;14.67;;;10.30;92.70;;;;;;5018011;28;20653;-89
2024/02/16 08:22:28;;;;;;;24.23;22.50;;;10.30;92.60;;;;;;5035703;28;20261;-89
2024/02/16 08:24:53;;;;;;;24.40;22.23;;;10.30;92.50;;;;;;5017487;28;20744;-89
2024/02/16 08:27:20;;;;;;;24.70;23.07;;;10.40;92.40;;;;;;5035314;28;20201;-89
2024/02/16 08:29:45;;;;;;;23.10;21.60;;;10.50;92.20;;;;;;5018415;28;20183;-89
2024/02/16 08:32:11;;;;;;;24.93;23.03;;;10.50;92.00;;;;;;5017910;28;20267;-89
2024/02/16 08:34:37;;;;;;;23.27;21.67;;;10.50;91.90;;;;;;5017452;28;20238;-89
2024/02/16 08:37:04;;;;;;;24.57;22.87;;;10.50;92.00;;;;;;5017545;28;20235;-89
2024/02/16 08:39:30;;;;;;;24.67;23.07;;;10.50;91.90;;;;;;5017409;28;20232;-89
2024/02/16 08:41:56;;;;;;;24.83;23.17;;;10.50;92.00;;;;;;5035170;28;20181;-89
2024/02/16 08:44:22;;;;;;;23.73;22.07;;;10.50;91.90;;;;;;5034883;28;20177;-88
2024/02/16 08:46:49;;;;;;;23.93;21.90;;;10.60;91.90;;;;;;5017266;28;20172;-89
2024/02/16 08:49:15;;;;;;;25.57;23.37;;;10.60;91.70;;;;;;5017167;28;20279;-89
2024/02/16 08:51:40;;;;;;;26.80;24.53;;;10.60;91.60;;;;;;5017289;28;20267;-89
2024/02/16 08:54:06;;;;;;;25.00;23.40;;;10.70;91.50;;;;;;5017286;28;20263;-89
2024/02/16 08:56:32;;;;;;;16.30;15.20;;;10.70;91.50;;;;;;5034874;28;20173;-88
2024/02/16 08:58:57;;;;;;;16.23;14.93;;;10.70;91.40;;;;;;5034734;28;20544;-89
2024/02/16 09:01:37;;;;;;;16.30;15.00;;;10.70;91.50;;;;;;5017019;28;20280;-89
2024/02/16 09:04:03;;;;;;;16.27;14.97;;;10.70;91.60;;;;;;5017005;28;20245;-88
2024/02/16 09:06:29;;;;;;;16.10;14.90;;;10.70;91.50;;;;;;5034557;28;20205;-89
2024/02/16 09:08:55;;;;;;;15.70;14.33;;;10.80;91.60;;;;;;5034550;28;20185;-89
2024/02/16 09:11:21;;;;;;;16.00;14.70;;;10.80;91.60;;;;;;5016961;28;20601;-89
2024/02/16 09:13:47;;;;;;;15.70;14.50;;;10.80;91.50;;;;;;5017061;28;20656;-89
2024/02/16 09:16:13;;;;;;;16.40;15.20;;;11.00;91.20;;;;;;5018158;28;20666;-90
2024/02/16 09:18:39;;;;;;;16.83;15.50;;;10.90;91.20;;;;;;5035005;28;20283;-88
2024/02/16 09:21:06;;;;;;;16.60;15.13;;;11.00;91.10;;;;;;5035059;28;20264;-89
2024/02/16 09:23:35;;;;;;;16.30;15.10;;;11.00;91.10;;;;;;5034562;28;20212;-90
2024/02/16 09:26:01;;;;;;;15.93;14.80;;;11.00;91.10;;;;;;5034308;28;20283;-88
2024/02/16 09:28:31;;;;;;;17.80;16.33;;;11.00;91.00;;;;;;5034340;28;20207;-89
2024/02/16 09:30:57;;;;;;;18.30;16.80;;;11.10;91.00;;;;;;5016286;28;20184;-89
2024/02/16 09:33:24;;;;;;;17.53;15.73;;;11.20;90.80;;;;;;5016431;28;20181;-89
2024/02/16 09:35:50;;;;;;;18.00;16.53;;;11.30;90.40;;;;;;5016497;28;20181;-89
2024/02/16 09:38:15;;;;;;;18.33;16.80;;;11.30;90.40;;;;;;5034107;28;20696;-89
2024/02/16 09:40:41;;;;;;;17.20;15.90;;;11.40;90.00;;;;;;5016301;28;20177;-89
2024/02/16 09:43:06;;;;;;;17.53;15.83;;;11.50;90.00;;;;;;5034192;28;20184;-90
2024/02/16 09:45:33;;;;;;;17.80;16.40;;;11.50;90.10;;;;;;5016299;28;20212;-89
2024/02/16 09:47:59;;;;;;;19.13;17.57;;;11.60;89.60;;;;;;5016280;28;20196;-88
2024/02/16 09:50:26;;;;;;;18.73;17.30;;;11.60;89.40;;;;;;5033897;28;20168;-88
2024/02/16 09:52:54;;;;;;;17.77;16.50;;;11.60;89.50;;;;;;5016465;28;20181;-89
2024/02/16 09:55:20;;;;;;;18.90;17.20;;;11.70;89.10;;;;;;5016151;28;20176;-89
2024/02/16 09:57:45;;;;;;;18.67;17.23;;;11.70;89.20;;;;;;5015485;28;20211;-89
2024/02/16 10:00:12;;;;;;;19.33;17.80;;;11.70;89.30;;;;;;5033709;28;20252;-89
2024/02/16 10:02:45;;;;;;;19.70;18.23;;;11.70;89.30;;;;;;5016495;28;20734;-89
2024/02/16 10:05:21;;;;;;;19.97;18.53;;;11.70;89.30;;;;;;5015683;28;20216;-89
2024/02/16 10:07:47;;;;;;;19.70;18.20;;;11.70;89.30;;;;;;5015677;28;20605;-88
2024/02/16 10:10:30;;;;;;;20.20;18.50;;;11.60;89.40;;;;;;5033520;28;20165;-89
2024/02/16 10:13:06;;;;;;;18.80;17.60;;;11.60;89.20;;;;;;5033575;28;20165;-89
2024/02/16 10:15:32;;;;;;;19.73;18.23;;;11.70;88.60;;;;;;5033596;28;20652;-89
2024/02/16 10:18:02;;;;;;;18.83;17.53;;;11.80;88.60;;;;;;5016025;28;20203;-88
2024/02/16 10:20:28;;;;;;;18.90;17.60;;;11.90;88.00;;;;;;5033969;28;20168;-89
2024/02/16 10:23:11;;;;;;;19.60;18.13;;;11.90;88.00;;;;;;5016318;28;20184;-89
2024/02/16 10:25:40;;;;;;;19.00;17.70;;;11.90;87.90;;;;;;5016191;28;20200;-89
2024/02/16 10:28:08;;;;;;;19.37;18.07;;;11.90;87.90;;;;;;5015826;28;20203;-89
2024/02/16 10:30:38;;;;;;;19.30;18.00;;;11.90;87.40;;;;;;5017060;28;20255;-89
2024/02/16 10:33:06;;;;;;;18.17;16.97;;;12.00;87.20;;;;;;5033921;28;20164;-88
2024/02/16 10:35:34;;;;;;;19.00;17.60;;;12.00;87.00;;;;;;5016300;28;20177;-89
2024/02/16 10:38:04;;;;;;;19.17;17.80;;;12.10;86.70;;;;;;5033625;28;20200;-89
2024/02/16 10:40:33;;;;;;;19.70;18.30;;;12.20;86.70;;;;;;5016140;28;20255;-89
2024/02/16 10:43:03;;;;;;;18.80;17.40;;;12.20;86.90;;;;;;5016115;28;20188;-90
2024/02/16 10:45:30;;;;;;;18.03;16.90;;;12.30;86.70;;;;;;5034288;28;20188;-88
2024/02/16 10:47:55;;;;;;;19.13;17.67;;;12.40;86.20;;;;;;5015890;28;20688;-89
2024/02/16 10:50:21;;;;;;;19.50;17.97;;;12.40;86.20;;;;;;5033697;28;20176;-89
2024/02/16 10:52:48;;;;;;;18.97;17.57;;;12.50;85.80;;;;;;5033748;28;20172;-89
2024/02/16 10:55:15;;;;;;;19.60;17.90;;;12.50;86.40;;;;;;5015719;28;20188;-88
2024/02/16 10:57:41;;;;;;;19.23;17.83;;;12.50;86.20;;;;;;5016790;28;20239;-88
2024/02/16 11:00:14;;;;;;;18.90;17.70;;;12.60;86.20;;;;;;5033193;28;20660;-89
2024/02/16 11:03:02;;;;;;;19.17;17.83;;;12.60;86.60;;;;;;5015867;28;20264;-89
2024/02/16 11:05:46;;;;;;;19.23;17.80;;;12.70;86.00;;;;;;5033655;28;20264;-89
2024/02/16 11:08:13;;;;;;;19.27;17.87;;;12.80;85.80;;;;;;5016853;28;20192;-89
2024/02/16 11:10:39;;;;;;;19.40;18.10;;;12.80;85.70;;;;;;5020132;28;20172;-89
2024/02/16 11:13:05;;;;;;;20.27;18.77;;;13.00;84.90;;;;;;5019193;28;20179;-89
2024/02/16 11:15:32;;;;;;;20.27;18.60;;;13.10;84.90;;;;;;5036970;28;20208;-89
2024/02/16 11:18:03;;;;;;;20.87;19.37;;;13.10;85.20;;;;;;5018928;28;20283;-89
2024/02/16 11:20:36;;;;;;;21.10;19.17;;;13.20;84.80;;;;;;5036584;28;20165;-89
2024/02/16 11:23:08;;;;;;;20.40;18.80;;;13.20;84.50;;;;;;5018778;28;20621;-89
2024/02/16 11:25:35;;;;;;;19.90;18.50;;;13.30;83.90;;;;;;5019003;28;20196;-89
2024/02/16 11:28:03;;;;;;;20.57;19.07;;;13.30;84.50;;;;;;5036229;28;20192;-89
2024/02/16 11:30:32;;;;;;;20.50;19.00;;;13.40;83.10;;;;;;5036676;28;20165;-88
2024/02/16 11:32:57;;;;;;;20.83;19.23;;;13.50;83.80;;;;;;5019683;28;20268;-84
2024/02/16 11:35:23;;;;;;;21.30;19.70;;;13.50;83.70;;;;;;5036803;28;20270;-87
2024/02/16 11:37:48;;;;;;;21.80;20.07;;;13.60;83.40;;;;;;5036399;28;20745;-86
2024/02/16 11:40:14;;;;;;;20.57;18.97;;;13.50;83.70;;;;;;5036181;28;20173;-84
2024/02/16 11:42:41;;;;;;;21.70;20.10;;;13.50;84.00;;;;;;5036535;28;20550;-84
2024/02/16 11:45:12;;;;;;;21.97;20.00;;;13.70;83.10;;;;;;5036461;28;20691;-87
2024/02/16 11:47:37;;;;;;;21.43;19.73;;;13.80;83.10;;;;;;5018953;28;20565;-84
2024/02/16 11:50:04;;;;;;;21.07;19.47;;;14.00;82.90;;;;;;5036669;28;20191;-84
2024/02/16 11:52:30;;;;;;;36.58;33.83;;;14.10;82.20;;;;;;5036947;28;20177;-84
2024/02/16 11:54:56;;;;;;;35.22;32.83;;;14.10;82.60;;;;;;5018772;28;20183;-83
2024/02/16 11:57:23;;;;;;;34.85;32.40;;;14.20;82.70;;;;;;5036644;28;20260;-84
2024/02/16 11:59:48;;;;;;;37.20;34.37;;;14.30;82.80;;;;;;5036757;28;20200;-83
2024/02/16 12:02:24;;;;;;;37.83;35.13;;;14.30;81.90;;;;;;5018257;28;20283;-84
2024/02/16 12:05:00;;;;;;;36.55;34.05;;;14.30;81.10;;;;;;5018468;28;20208;-84
2024/02/16 12:07:29;;;;;;;37.50;34.65;;;14.30;81.80;;;;;;5018433;28;20661;-84
2024/02/16 12:10:00;;;;;;;38.03;35.30;;;14.20;83.00;;;;;;5036847;28;20187;-84
2024/02/16 12:12:27;;;;;;;36.90;34.38;;;14.20;82.40;;;;;;5018298;28;20184;-84
2024/02/16 12:14:54;;;;;;;22.52;20.85;;;14.20;83.00;;;;;;5036331;28;20179;-84
2024/02/16 12:17:19;;;;;;;21.92;20.23;;;14.20;82.90;;;;;;5018344;28;20652;-84
2024/02/16 12:19:46;;;;;;;22.25;20.67;;;14.20;82.90;;;;;;5035908;28;20336;-84
2024/02/16 12:22:18;;;;;;;23.20;21.42;;;14.30;83.00;;;;;;5035992;28;20180;-84
2024/02/16 12:24:44;;;;;;;22.55;20.73;;;14.20;82.90;;;;;;5035881;28;20255;-84